Time;durP1;ratioP1;P1;durP2;ratioP2;P2;SDS_P1;SDS_P2;PMS_P1;PMS_P2;Temp;Humidity;BMP_temperature;BMP_pressure;BME280_temperature;BME280_humidity;BME280_pressure;Samples;Min_cycle;Max_cycle;Signal;HPM_P1;HPM_P2
2022/03/24 00:00:26;;;;;;;4.68;4.28;;;;;;;;;;5099389;28;20598;-53
2022/03/24 00:02:54;;;;;;;5.00;4.60;;;;;;;;;;5099554;28;20250;-53
2022/03/24 00:05:23;;;;;;;4.43;4.03;;;;;;;;;;5085941;28;20224;-53
2022/03/24 00:07:51;;;;;;;4.93;4.47;;;;;;;;;;5079122;28;20670;-53
2022/03/24 00:10:18;;;;;;;4.60;4.20;;;;;;;;;;5079182;28;20280;-53
2022/03/24 00:12:46;;;;;;;4.78;4.32;;;;;;;;;;5079235;28;20487;-53
2022/03/24 00:15:14;;;;;;;5.05;4.38;;;;;;;;;;5079138;28;20299;-53
2022/03/24 00:17:42;;;;;;;4.72;4.32;;;;;;;;;;5084814;28;20203;-53
2022/03/24 00:20:11;;;;;;;4.88;4.47;;;;;;;;;;5097795;28;20561;-53
2022/03/24 00:22:39;;;;;;;4.47;4.13;;;;;;;;;;5097976;28;20203;-53
2022/03/24 00:25:07;;;;;;;4.85;4.38;;;;;;;;;;5097509;28;20229;-53
2022/03/24 00:27:35;;;;;;;4.57;4.28;;;;;;;;;;5097384;28;20283;-53
2022/03/24 00:30:03;;;;;;;5.80;5.05;;;;;;;;;;5098023;28;20234;-53
2022/03/24 00:32:30;;;;;;;5.32;4.82;;;;;;;;;;5097444;28;20298;-53
2022/03/24 00:34:58;;;;;;;5.40;4.88;;;;;;;;;;5097007;28;20272;-53
2022/03/24 00:37:26;;;;;;;5.22;4.72;;;;;;;;;;5097625;28;20294;-53
2022/03/24 00:39:55;;;;;;;5.28;4.78;;;;;;;;;;5097456;28;20276;-53
2022/03/24 00:42:23;;;;;;;5.20;4.70;;;;;;;;;;5096773;28;20298;-53
2022/03/24 00:44:51;;;;;;;5.25;4.80;;;;;;;;;;5096504;28;20195;-53
2022/03/24 00:47:18;;;;;;;4.82;4.43;;;;;;;;;;5096516;28;20322;-53
2022/03/24 00:49:46;;;;;;;4.88;4.47;;;;;;;;;;5097262;28;20298;-53
2022/03/24 00:52:14;;;;;;;5.20;4.80;;;;;;;;;;5096958;28;20290;-53
2022/03/24 00:54:41;;;;;;;5.30;4.90;;;;;;;;;;5097652;28;20250;-53
2022/03/24 00:57:10;;;;;;;5.22;4.82;;;;;;;;;;5097198;28;20238;-53
2022/03/24 00:59:39;;;;;;;5.50;5.10;;;;;;;;;;5096328;28;20246;-53
2022/03/24 01:02:09;;;;;;;5.45;5.00;;;;;;;;;;5096357;28;20266;-54
2022/03/24 01:04:37;;;;;;;5.47;5.00;;;;;;;;;;5098604;28;20204;-53
2022/03/24 01:07:05;;;;;;;5.10;4.70;;;;;;;;;;5096458;28;20227;-53
2022/03/24 01:09:32;;;;;;;5.05;4.65;;;;;;;;;;5097307;28;20291;-53
2022/03/24 01:12:00;;;;;;;6.00;5.50;;;;;;;;;;5096708;28;20660;-53
2022/03/24 01:14:32;;;;;;;5.35;4.95;;;;;;;;;;5097984;28;20611;-54
2022/03/24 01:17:01;;;;;;;5.63;5.13;;;;;;;;;;5097064;28;20199;-53
2022/03/24 01:19:29;;;;;;;5.03;4.68;;;;;;;;;;5096579;28;20203;-53
2022/03/24 01:21:56;;;;;;;5.13;4.65;;;;;;;;;;5097879;28;20552;-53
2022/03/24 01:24:24;;;;;;;5.55;5.05;;;;;;;;;;5096970;28;20243;-53
2022/03/24 01:26:51;;;;;;;4.97;4.57;;;;;;;;;;5097181;28;20585;-53
2022/03/24 01:29:19;;;;;;;5.30;4.90;;;;;;;;;;5096289;28;20207;-53
2022/03/24 01:31:47;;;;;;;5.60;5.13;;;;;;;;;;5096692;28;20257;-53
2022/03/24 01:34:16;;;;;;;5.57;5.18;;;;;;;;;;5096860;28;20291;-53
2022/03/24 01:36:44;;;;;;;5.30;4.90;;;;;;;;;;5095953;28;20200;-53
2022/03/24 01:39:11;;;;;;;5.28;4.78;;;;;;;;;;5096651;28;20235;-53
2022/03/24 01:41:40;;;;;;;5.72;5.22;;;;;;;;;;5096318;28;20210;-53
2022/03/24 01:44:12;;;;;;;5.35;4.95;;;;;;;;;;5097424;28;20211;-53
2022/03/24 01:46:40;;;;;;;5.40;5.00;;;;;;;;;;5096359;28;20219;-53
2022/03/24 01:49:10;;;;;;;5.55;5.13;;;;;;;;;;5096557;28;20214;-53
2022/03/24 01:51:37;;;;;;;5.40;5.00;;;;;;;;;;5097075;28;20667;-53
2022/03/24 01:54:05;;;;;;;5.20;4.80;;;;;;;;;;5096540;28;20227;-53
2022/03/24 01:56:32;;;;;;;5.38;4.97;;;;;;;;;;5096209;28;20595;-53
2022/03/24 01:59:00;;;;;;;5.40;5.00;;;;;;;;;;5096090;28;20302;-53
2022/03/24 02:01:29;;;;;;;5.90;5.40;;;;;;;;;;5096706;28;20203;-53
2022/03/24 02:03:58;;;;;;;5.88;5.38;;;;;;;;;;5096708;28;20204;-53
2022/03/24 02:06:27;;;;;;;5.97;5.47;;;;;;;;;;5095700;28;20227;-53
2022/03/24 02:08:57;;;;;;;5.70;5.20;;;;;;;;;;5095725;28;20626;-53
2022/03/24 02:11:24;;;;;;;5.70;5.20;;;;;;;;;;5096131;28;20204;-53
2022/03/24 02:13:52;;;;;;;5.22;4.78;;;;;;;;;;5096311;28;20290;-53
2022/03/24 02:16:19;;;;;;;5.68;5.20;;;;;;;;;;5096456;28;20239;-53
2022/03/24 02:18:47;;;;;;;5.53;5.13;;;;;;;;;;5097324;28;20211;-53
2022/03/24 02:21:16;;;;;;;5.90;5.50;;;;;;;;;;5096846;28;20250;-53
2022/03/24 02:23:45;;;;;;;6.03;5.53;;;;;;;;;;5097164;28;20214;-53
2022/03/24 02:26:13;;;;;;;5.57;5.13;;;;;;;;;;5096643;28;20317;-53
2022/03/24 02:28:42;;;;;;;5.72;5.32;;;;;;;;;;5097972;28;20239;-53
2022/03/24 02:31:10;;;;;;;5.88;5.38;;;;;;;;;;5096524;28;20203;-53
2022/03/24 02:33:38;;;;;;;5.97;5.47;;;;;;;;;;5096650;28;20202;-53
2022/03/24 02:36:06;;;;;;;5.50;5.10;;;;;;;;;;5096854;28;20579;-53
2022/03/24 02:38:34;;;;;;;6.03;5.53;;;;;;;;;;5097359;28;20341;-53
2022/03/24 02:41:03;;;;;;;6.05;5.55;;;;;;;;;;5097263;28;20235;-53
2022/03/24 02:43:30;;;;;;;5.55;5.15;;;;;;;;;;5096533;28;20243;-53
2022/03/24 02:45:58;;;;;;;6.13;5.63;;;;;;;;;;5096661;28;20730;-53
2022/03/24 02:48:25;;;;;;;6.15;5.65;;;;;;;;;;5096223;28;20330;-53
2022/03/24 02:50:53;;;;;;;6.13;5.63;;;;;;;;;;5096412;28;20290;-53
2022/03/24 02:53:21;;;;;;;6.10;5.60;;;;;;;;;;5096667;28;20511;-53
2022/03/24 02:55:48;;;;;;;6.13;5.63;;;;;;;;;;5096867;28;20246;-53
2022/03/24 02:58:17;;;;;;;5.80;5.40;;;;;;;;;;5097042;28;20562;-53
2022/03/24 03:00:45;;;;;;;6.00;5.50;;;;;;;;;;5096858;28;20286;-53
2022/03/24 03:03:12;;;;;;;6.25;5.65;;;;;;;;;;5095553;28;20304;-53
2022/03/24 03:05:40;;;;;;;5.82;5.43;;;;;;;;;;5096211;28;20258;-53
2022/03/24 03:08:08;;;;;;;5.93;5.43;;;;;;;;;;5096606;28;20352;-53
2022/03/24 03:10:36;;;;;;;5.97;5.47;;;;;;;;;;5096921;28;20559;-53
2022/03/24 03:13:03;;;;;;;5.70;5.30;;;;;;;;;;5100099;28;20302;-53
2022/03/24 03:15:33;;;;;;;5.82;5.32;;;;;;;;;;5099882;28;20551;-53
2022/03/24 03:18:01;;;;;;;6.10;5.60;;;;;;;;;;5100212;28;20213;-53
2022/03/24 03:20:28;;;;;;;6.20;5.70;;;;;;;;;;5100080;28;20207;-53
2022/03/24 03:22:56;;;;;;;5.95;5.45;;;;;;;;;;5099858;28;20290;-53
2022/03/24 03:25:23;;;;;;;6.07;5.57;;;;;;;;;;5100727;28;20214;-53
2022/03/24 03:27:51;;;;;;;6.57;5.97;;;;;;;;;;5100836;28;20326;-53
2022/03/24 03:30:19;;;;;;;5.80;5.30;;;;;;;;;;5100256;28;20563;-53
2022/03/24 03:32:48;;;;;;;6.10;5.60;;;;;;;;;;5100189;28;20567;-53
2022/03/24 03:35:15;;;;;;;6.05;5.55;;;;;;;;;;5100284;28;20565;-53
2022/03/24 03:37:43;;;;;;;6.00;5.50;;;;;;;;;;5100260;28;20302;-53
2022/03/24 03:40:11;;;;;;;6.18;5.68;;;;;;;;;;5099821;28;20290;-53
2022/03/24 03:42:39;;;;;;;5.95;5.45;;;;;;;;;;5099986;28;20243;-53
2022/03/24 03:45:07;;;;;;;5.80;5.30;;;;;;;;;;5099543;28;20272;-53
2022/03/24 03:47:34;;;;;;;6.00;5.50;;;;;;;;;;5099957;28;20274;-53
2022/03/24 03:50:03;;;;;;;6.15;5.65;;;;;;;;;;5099796;28;20286;-53
2022/03/24 03:52:31;;;;;;;5.97;5.45;;;;;;;;;;5099728;28;20243;-53
2022/03/24 03:54:59;;;;;;;6.40;5.90;;;;;;;;;;5099473;28;20298;-53
2022/03/24 03:57:26;;;;;;;5.63;5.22;;;;;;;;;;5099646;28;20634;-53
2022/03/24 03:59:54;;;;;;;6.15;5.65;;;;;;;;;;5099180;28;20314;-53
2022/03/24 04:02:21;;;;;;;6.05;5.55;;;;;;;;;;5098734;28;20295;-53
2022/03/24 04:04:49;;;;;;;6.10;5.63;;;;;;;;;;5100119;28;20639;-53
2022/03/24 04:07:18;;;;;;;6.43;5.93;;;;;;;;;;5099267;28;20231;-53
2022/03/24 04:09:46;;;;;;;6.05;5.55;;;;;;;;;;5098839;28;20223;-53
2022/03/24 04:12:14;;;;;;;6.60;6.10;;;;;;;;;;5099498;28;20269;-53
2022/03/24 04:14:41;;;;;;;6.40;5.90;;;;;;;;;;5099216;28;20572;-53
2022/03/24 04:17:08;;;;;;;6.20;5.70;;;;;;;;;;5099339;28;20283;-53
2022/03/24 04:19:36;;;;;;;6.40;5.85;;;;;;;;;;5098984;28;20297;-53
2022/03/24 04:22:05;;;;;;;6.15;5.65;;;;;;;;;;5098001;28;20283;-53
2022/03/24 04:24:34;;;;;;;6.53;6.03;;;;;;;;;;5098085;28;20217;-53
2022/03/24 04:27:01;;;;;;;6.35;5.75;;;;;;;;;;5098795;28;20224;-53
2022/03/24 04:29:28;;;;;;;6.18;5.68;;;;;;;;;;5098450;28;20603;-53
2022/03/24 04:31:56;;;;;;;6.35;5.85;;;;;;;;;;5099167;28;20519;-53
2022/03/24 04:34:23;;;;;;;6.40;5.90;;;;;;;;;;5098461;28;20318;-53
2022/03/24 04:36:51;;;;;;;6.07;5.57;;;;;;;;;;5099063;28;20554;-53
2022/03/24 04:39:19;;;;;;;6.03;5.53;;;;;;;;;;5098818;28;20306;-53
2022/03/24 04:41:47;;;;;;;6.00;5.50;;;;;;;;;;5098035;28;20298;-53
2022/03/24 04:44:15;;;;;;;6.07;5.57;;;;;;;;;;5098839;28;20310;-53
2022/03/24 04:46:43;;;;;;;5.90;5.50;;;;;;;;;;5097723;28;20235;-53
2022/03/24 04:49:10;;;;;;;6.47;5.93;;;;;;;;;;5098450;28;20307;-53
2022/03/24 04:51:38;;;;;;;6.32;5.82;;;;;;;;;;5097991;28;20265;-53
2022/03/24 04:54:06;;;;;;;6.13;5.63;;;;;;;;;;5098278;28;20290;-53
2022/03/24 04:56:33;;;;;;;6.50;6.00;;;;;;;;;;5097491;28;20261;-53
2022/03/24 04:59:02;;;;;;;6.30;5.80;;;;;;;;;;5097436;28;20282;-53
2022/03/24 05:01:29;;;;;;;6.65;6.13;;;;;;;;;;5096753;28;20235;-53
2022/03/24 05:03:57;;;;;;;6.53;5.93;;;;;;;;;;5096733;28;20607;-53
2022/03/24 05:06:24;;;;;;;6.78;6.28;;;;;;;;;;5097610;28;20203;-53
2022/03/24 05:08:52;;;;;;;6.47;5.90;;;;;;;;;;5097501;28;20294;-53
2022/03/24 05:11:19;;;;;;;6.60;6.10;;;;;;;;;;5096978;28;20330;-53
2022/03/24 05:13:46;;;;;;;6.60;6.00;;;;;;;;;;5096885;28;20306;-53
2022/03/24 05:16:15;;;;;;;6.70;6.18;;;;;;;;;;5097360;28;20696;-53
2022/03/24 05:18:43;;;;;;;6.10;5.70;;;;;;;;;;5096565;28;20231;-53
2022/03/24 05:21:11;;;;;;;6.78;6.18;;;;;;;;;;5096432;28;20315;-53
2022/03/24 05:23:38;;;;;;;6.40;5.90;;;;;;;;;;5095754;28;20204;-53
2022/03/24 05:26:07;;;;;;;6.10;5.60;;;;;;;;;;5096567;28;20235;-53
2022/03/24 05:28:34;;;;;;;5.68;5.28;;;;;;;;;;5096382;28;20478;-53
2022/03/24 05:31:02;;;;;;;6.30;5.80;;;;;;;;;;5096647;28;20290;-53
2022/03/24 05:33:33;;;;;;;6.30;5.80;;;;;;;;;;5096470;28;20293;-53
2022/03/24 05:36:01;;;;;;;6.15;5.65;;;;;;;;;;5096319;28;20204;-53
2022/03/24 05:38:28;;;;;;;6.50;5.90;;;;;;;;;;5096896;28;20211;-53
2022/03/24 05:40:58;;;;;;;6.68;6.18;;;;;;;;;;5097786;28;20195;-53
2022/03/24 05:43:26;;;;;;;6.32;5.82;;;;;;;;;;5097354;28;20451;-53
2022/03/24 05:45:53;;;;;;;5.80;5.30;;;;;;;;;;5096706;28;20279;-53
2022/03/24 05:48:20;;;;;;;6.30;5.80;;;;;;;;;;5096158;28;20239;-53
2022/03/24 05:50:49;;;;;;;6.20;5.70;;;;;;;;;;5096195;28;20243;-53
2022/03/24 05:53:17;;;;;;;6.65;6.10;;;;;;;;;;5096165;28;20591;-53
2022/03/24 05:55:45;;;;;;;6.65;6.05;;;;;;;;;;5096004;28;20295;-53
2022/03/24 05:58:12;;;;;;;6.20;5.70;;;;;;;;;;5096036;28;20227;-53
2022/03/24 06:00:41;;;;;;;6.07;5.55;;;;;;;;;;5094409;28;20784;-53
2022/03/24 06:03:08;;;;;;;6.00;5.50;;;;;;;;;;5095049;28;20231;-53
2022/03/24 06:05:40;;;;;;;6.20;5.70;;;;;;;;;;5094466;28;20302;-53
2022/03/24 06:08:11;;;;;;;6.18;5.68;;;;;;;;;;5095300;28;20223;-53
2022/03/24 06:10:39;;;;;;;6.65;6.05;;;;;;;;;;5094738;28;20534;-53
2022/03/24 06:13:07;;;;;;;6.50;5.93;;;;;;;;;;5094665;28;20227;-53
2022/03/24 06:15:34;;;;;;;6.25;5.75;;;;;;;;;;5092898;28;20256;-53
2022/03/24 06:18:02;;;;;;;6.05;5.55;;;;;;;;;;5093981;28;20774;-53
2022/03/24 06:20:29;;;;;;;6.72;6.15;;;;;;;;;;5094259;28;20246;-53
2022/03/24 06:22:57;;;;;;;6.05;5.55;;;;;;;;;;5094447;28;20208;-53
2022/03/24 06:25:27;;;;;;;6.22;5.72;;;;;;;;;;5093774;28;20567;-53
2022/03/24 06:27:55;;;;;;;6.45;5.85;;;;;;;;;;5093721;28;20713;-53
2022/03/24 06:30:24;;;;;;;6.15;5.60;;;;;;;;;;5093672;28;20235;-53
2022/03/24 06:32:52;;;;;;;6.25;5.75;;;;;;;;;;5093784;28;20211;-53
2022/03/24 06:35:19;;;;;;;6.20;5.70;;;;;;;;;;5094070;28;20214;-53
2022/03/24 06:37:48;;;;;;;6.30;5.80;;;;;;;;;;5093694;28;20298;-53
2022/03/24 06:40:16;;;;;;;6.07;5.57;;;;;;;;;;5093875;28;20222;-53
2022/03/24 06:42:45;;;;;;;5.93;5.43;;;;;;;;;;5092107;28;20200;-53
2022/03/24 06:45:13;;;;;;;6.03;5.53;;;;;;;;;;5092191;28;20679;-53
2022/03/24 06:47:41;;;;;;;6.10;5.60;;;;;;;;;;5096137;28;20350;-53
2022/03/24 06:50:10;;;;;;;6.20;5.70;;;;;;;;;;5097051;28;20213;-53
2022/03/24 06:52:37;;;;;;;5.70;5.20;;;;;;;;;;5097117;28;20211;-53
2022/03/24 06:55:05;;;;;;;6.18;5.68;;;;;;;;;;5096139;28;20239;-53
2022/03/24 06:57:33;;;;;;;6.28;5.78;;;;;;;;;;5096423;28;20218;-53
2022/03/24 07:00:02;;;;;;;6.13;5.63;;;;;;;;;;5096594;28;20208;-53
2022/03/24 07:02:30;;;;;;;6.30;5.80;;;;;;;;;;5096843;28;20644;-53
2022/03/24 07:04:57;;;;;;;6.03;5.47;;;;;;;;;;5097867;28;20242;-53
2022/03/24 07:07:25;;;;;;;5.97;5.53;;;;;;;;;;5098087;28;20284;-54
2022/03/24 07:09:52;;;;;;;5.82;5.32;;;;;;;;;;5097447;28;20200;-53
2022/03/24 07:12:21;;;;;;;5.80;5.30;;;;;;;;;;5098112;28;20248;-53
2022/03/24 07:14:49;;;;;;;6.00;5.50;;;;;;;;;;5098196;28;20286;-53
2022/03/24 07:17:19;;;;;;;6.40;5.90;;;;;;;;;;5098291;28;20226;-53
2022/03/24 07:19:47;;;;;;;5.65;5.15;;;;;;;;;;5097737;28;20292;-53
2022/03/24 07:22:15;;;;;;;5.30;4.90;;;;;;;;;;5099051;28;20204;-53
2022/03/24 07:24:43;;;;;;;5.63;5.20;;;;;;;;;;5098765;28;20239;-53
2022/03/24 07:27:11;;;;;;;6.10;5.53;;;;;;;;;;5098439;28;20196;-53
2022/03/24 07:29:39;;;;;;;5.35;4.95;;;;;;;;;;5098411;28;20203;-53
2022/03/24 07:32:08;;;;;;;5.70;5.20;;;;;;;;;;5096642;28;20378;-53
2022/03/24 07:34:37;;;;;;;5.63;5.13;;;;;;;;;;5097206;28;20575;-53
2022/03/24 07:37:05;;;;;;;5.72;5.22;;;;;;;;;;5095985;28;20282;-53
2022/03/24 07:39:33;;;;;;;5.38;4.97;;;;;;;;;;5095282;28;20241;-53
2022/03/24 07:42:00;;;;;;;5.68;5.20;;;;;;;;;;5097019;28;20318;-53
2022/03/24 07:44:28;;;;;;;5.28;4.88;;;;;;;;;;5097366;28;20208;-53
2022/03/24 07:46:56;;;;;;;5.65;5.15;;;;;;;;;;5095884;28;20294;-53
2022/03/24 07:49:23;;;;;;;5.30;4.90;;;;;;;;;;5095341;28;20801;-53
2022/03/24 07:51:53;;;;;;;5.63;5.13;;;;;;;;;;5094947;28;20294;-53
2022/03/24 07:54:32;;;;;;;5.40;5.00;;;;;;;;;;5095560;28;20287;-53
2022/03/24 07:56:59;;;;;;;5.65;5.20;;;;;;;;;;5095197;28;20207;-53
2022/03/24 07:59:27;;;;;;;5.95;5.45;;;;;;;;;;5096808;28;20544;-53
2022/03/24 08:01:54;;;;;;;5.80;5.30;;;;;;;;;;5096165;28;20584;-53
2022/03/24 08:04:21;;;;;;;5.80;5.30;;;;;;;;;;5094819;28;20563;-53
2022/03/24 08:06:49;;;;;;;5.53;5.05;;;;;;;;;;5095591;28;20227;-53
2022/03/24 08:09:18;;;;;;;5.18;4.78;;;;;;;;;;5095116;28;20331;-53
2022/03/24 08:11:48;;;;;;;5.18;4.78;;;;;;;;;;5095549;28;20510;-53
2022/03/24 08:14:15;;;;;;;5.50;5.10;;;;;;;;;;5094889;28;20203;-53
2022/03/24 08:16:45;;;;;;;5.80;5.30;;;;;;;;;;5094800;28;20203;-53
2022/03/24 08:19:14;;;;;;;6.00;5.50;;;;;;;;;;5094925;28;20210;-53
2022/03/24 08:21:42;;;;;;;5.38;4.97;;;;;;;;;;5094363;28;20459;-53
2022/03/24 08:24:10;;;;;;;5.60;5.07;;;;;;;;;;5095476;28;20246;-53
2022/03/24 08:26:40;;;;;;;5.68;5.18;;;;;;;;;;5095609;28;20214;-53
2022/03/24 08:29:07;;;;;;;5.72;5.15;;;;;;;;;;5094492;28;20315;-53
2022/03/24 08:31:35;;;;;;;5.55;5.05;;;;;;;;;;5094591;28;20298;-53
2022/03/24 08:34:02;;;;;;;5.47;4.97;;;;;;;;;;5094926;28;20596;-53
2022/03/24 08:36:30;;;;;;;5.55;5.00;;;;;;;;;;5094383;28;20214;-53
2022/03/24 08:38:59;;;;;;;5.20;4.80;;;;;;;;;;5093717;28;20279;-53
2022/03/24 08:41:27;;;;;;;5.35;4.95;;;;;;;;;;5095528;28;20203;-53
2022/03/24 08:43:56;;;;;;;5.25;4.82;;;;;;;;;;5094568;28;20642;-53
2022/03/24 08:46:25;;;;;;;4.97;4.57;;;;;;;;;;5094152;28;20569;-53
2022/03/24 08:48:53;;;;;;;5.78;5.18;;;;;;;;;;5094436;28;20306;-53
2022/03/24 08:51:20;;;;;;;5.18;4.78;;;;;;;;;;5093988;28;20211;-53
2022/03/24 08:53:48;;;;;;;5.63;5.10;;;;;;;;;;5094299;28;20518;-53
2022/03/24 08:56:16;;;;;;;5.30;4.80;;;;;;;;;;5091864;28;20199;-53
2022/03/24 08:58:44;;;;;;;6.30;4.78;;;;;;;;;;5093915;28;20291;-53
2022/03/24 09:01:13;;;;;;;5.72;5.18;;;;;;;;;;5094724;28;20624;-53
2022/03/24 09:03:40;;;;;;;5.50;5.00;;;;;;;;;;5093874;28;20482;-53
2022/03/24 09:06:07;;;;;;;5.43;5.03;;;;;;;;;;5093884;28;20290;-53
2022/03/24 09:08:35;;;;;;;6.00;4.97;;;;;;;;;;5092226;28;20254;-53
2022/03/24 09:11:03;;;;;;;5.20;4.80;;;;;;;;;;5093491;28;20501;-53
2022/03/24 09:13:30;;;;;;;5.15;4.75;;;;;;;;;;5094421;28;20260;-53
2022/03/24 09:15:59;;;;;;;5.47;5.00;;;;;;;;;;5093498;28;20342;-53
2022/03/24 09:18:27;;;;;;;5.53;4.97;;;;;;;;;;5094371;28;20210;-53
2022/03/24 09:20:55;;;;;;;5.78;5.28;;;;;;;;;;5094493;28;20702;-53
2022/03/24 09:23:24;;;;;;;5.32;4.78;;;;;;;;;;5094226;28;20240;-53
2022/03/24 09:25:51;;;;;;;5.68;5.18;;;;;;;;;;5094152;28;20261;-53
2022/03/24 09:28:19;;;;;;;5.93;5.25;;;;;;;;;;5094642;28;20223;-53
2022/03/24 09:30:46;;;;;;;5.95;5.28;;;;;;;;;;5094159;28;20247;-53
2022/03/24 09:33:14;;;;;;;6.03;5.07;;;;;;;;;;5094079;28;20303;-53
2022/03/24 09:35:43;;;;;;;6.97;5.45;;;;;;;;;;5094062;28;20211;-53
2022/03/24 09:38:11;;;;;;;6.40;5.80;;;;;;;;;;5094206;28;20242;-53
2022/03/24 09:40:39;;;;;;;6.28;5.78;;;;;;;;;;5094278;28;20204;-53
2022/03/24 09:43:06;;;;;;;6.60;6.00;;;;;;;;;;5094809;28;20606;-53
2022/03/24 09:45:34;;;;;;;6.63;6.03;;;;;;;;;;5093818;28;20321;-53
2022/03/24 09:48:02;;;;;;;6.60;5.80;;;;;;;;;;5093193;28;20330;-53
2022/03/24 09:50:30;;;;;;;6.93;6.25;;;;;;;;;;5093835;28;20210;-53
2022/03/24 09:52:59;;;;;;;6.43;5.88;;;;;;;;;;5093055;28;20294;-53
2022/03/24 09:55:30;;;;;;;6.80;6.10;;;;;;;;;;5092133;28;20652;-53
2022/03/24 09:57:58;;;;;;;6.88;6.25;;;;;;;;;;5092635;28;20207;-53
2022/03/24 10:00:25;;;;;;;6.90;5.97;;;;;;;;;;5093448;28;20310;-54
2022/03/24 10:03:07;;;;;;;7.38;6.68;;;;;;;;;;5092181;28;20239;-53
2022/03/24 10:05:35;;;;;;;7.30;6.70;;;;;;;;;;5090913;28;20314;-53
2022/03/24 10:08:06;;;;;;;7.32;6.35;;;;;;;;;;5093039;28;20576;-53
2022/03/24 10:10:36;;;;;;;6.70;6.10;;;;;;;;;;5092740;28;20203;-53
2022/03/24 10:13:04;;;;;;;7.15;6.55;;;;;;;;;;5091519;28;20669;-54
2022/03/24 10:15:31;;;;;;;9.68;6.60;;;;;;;;;;5090800;28;20207;-54
2022/03/24 10:18:00;;;;;;;7.63;6.82;;;;;;;;;;5092325;28;20298;-53
2022/03/24 10:20:29;;;;;;;7.47;6.78;;;;;;;;;;5090577;28;20528;-53
2022/03/24 10:22:57;;;;;;;7.65;6.95;;;;;;;;;;5091756;28;20407;-53
2022/03/24 10:25:27;;;;;;;7.18;6.47;;;;;;;;;;5092225;28;20235;-54
2022/03/24 10:28:03;;;;;;;7.20;6.60;;;;;;;;;;5092225;28;20543;-53
2022/03/24 10:30:45;;;;;;;6.90;6.30;;;;;;;;;;5093326;28;20598;-54
2022/03/24 10:33:26;;;;;;;6.95;6.32;;;;;;;;;;5092547;28;20215;-53
2022/03/24 10:36:05;;;;;;;7.20;6.50;;;;;;;;;;5091769;28;20298;-53
2022/03/24 10:38:33;;;;;;;7.75;6.95;;;;;;;;;;5090901;28;20206;-53
2022/03/24 10:41:12;;;;;;;7.65;6.90;;;;;;;;;;5091792;28;20261;-53
2022/03/24 10:43:40;;;;;;;7.22;6.63;;;;;;;;;;5090966;28;20302;-53
2022/03/24 10:46:13;;;;;;;7.38;6.70;;;;;;;;;;5091104;28;20286;-53
2022/03/24 10:48:40;;;;;;;7.60;6.90;;;;;;;;;;5090791;28;20239;-53
2022/03/24 10:51:08;;;;;;;7.85;7.03;;;;;;;;;;5091270;28;20294;-53
2022/03/24 10:53:42;;;;;;;6.95;6.30;;;;;;;;;;5089957;28;20203;-53
2022/03/24 10:56:15;;;;;;;8.30;7.45;;;;;;;;;;5090227;28;20294;-53
2022/03/24 10:58:44;;;;;;;7.50;6.82;;;;;;;;;;5090961;28;20308;-54
2022/03/24 11:01:12;;;;;;;7.47;6.78;;;;;;;;;;5090342;28;20234;-53
2022/03/24 11:03:41;;;;;;;7.22;6.57;;;;;;;;;;5090217;28;20411;-53
2022/03/24 11:06:12;;;;;;;7.63;6.93;;;;;;;;;;5090601;28;20219;-53
2022/03/24 11:08:39;;;;;;;7.35;6.75;;;;;;;;;;5090471;28;20284;-53
2022/03/24 11:11:08;;;;;;;7.72;7.05;;;;;;;;;;5090620;28;20206;-53
2022/03/24 11:13:44;;;;;;;7.30;6.65;;;;;;;;;;5089999;28;20188;-53
2022/03/24 11:16:12;;;;;;;7.90;7.15;;;;;;;;;;5074904;28;20198;-54
2022/03/24 11:18:41;;;;;;;7.47;6.82;;;;;;;;;;5090798;28;20279;-53
2022/03/24 11:21:10;;;;;;;10.20;7.15;;;;;;;;;;5091063;28;20306;-53
2022/03/24 11:23:39;;;;;;;8.02;7.22;;;;;;;;;;5090409;28;20314;-53
2022/03/24 11:26:07;;;;;;;9.00;8.10;;;;;;;;;;5090790;28;20196;-53
2022/03/24 11:28:36;;;;;;;11.82;10.63;;;;;;;;;;5090591;28;20575;-53
2022/03/24 11:31:09;;;;;;;12.77;10.20;;;;;;;;;;5091019;28;20579;-53
2022/03/24 11:33:41;;;;;;;11.25;10.15;;;;;;;;;;5092838;28;20552;-53
2022/03/24 11:36:09;;;;;;;10.15;9.18;;;;;;;;;;5094396;28;20307;-53
2022/03/24 11:38:37;;;;;;;11.27;10.20;;;;;;;;;;5093773;28;20192;-53
2022/03/24 11:41:05;;;;;;;11.55;10.45;;;;;;;;;;5094008;28;20494;-53
2022/03/24 11:43:34;;;;;;;11.50;10.40;;;;;;;;;;5093901;28;20203;-53
2022/03/24 11:46:04;;;;;;;11.40;10.30;;;;;;;;;;5094766;28;20268;-53
2022/03/24 11:48:37;;;;;;;10.27;9.27;;;;;;;;;;5093356;28;20367;-53
2022/03/24 11:51:09;;;;;;;11.65;10.55;;;;;;;;;;5092012;28;20299;-53
2022/03/24 11:53:40;;;;;;;10.82;9.73;;;;;;;;;;5094741;28;20208;-53
2022/03/24 11:56:18;;;;;;;10.07;9.07;;;;;;;;;;5096691;28;20305;-53
2022/03/24 11:58:47;;;;;;;10.45;9.30;;;;;;;;;;5092880;28;20432;-53
2022/03/24 12:01:29;;;;;;;10.45;9.45;;;;;;;;;;5092424;28;20298;-53
2022/03/24 12:04:05;;;;;;;11.13;10.02;;;;;;;;;;5093192;28;20594;-53
2022/03/24 12:06:54;;;;;;;10.05;9.15;;;;;;;;;;5094346;28;20225;-53
2022/03/24 12:09:25;;;;;;;10.30;9.20;;;;;;;;;;5088872;28;20416;-53
2022/03/24 12:11:54;;;;;;;10.35;9.32;;;;;;;;;;5092532;28;20543;-53
2022/03/24 12:14:23;;;;;;;9.75;8.85;;;;;;;;;;5094819;28;20310;-53
2022/03/24 12:16:51;;;;;;;9.35;8.45;;;;;;;;;;5093060;28;20295;-53
2022/03/24 12:19:40;;;;;;;10.00;9.00;;;;;;;;;;5094035;28;20302;-53
2022/03/24 12:22:25;;;;;;;9.80;8.93;;;;;;;;;;5094736;28;20214;-53
2022/03/24 12:24:54;;;;;;;10.68;9.68;;;;;;;;;;5093476;28;20238;-53
2022/03/24 12:27:21;;;;;;;9.73;8.88;;;;;;;;;;5095435;28;20741;-53
2022/03/24 12:30:09;;;;;;;9.18;8.27;;;;;;;;;;5096392;28;20734;-53
2022/03/24 12:32:37;;;;;;;9.88;8.95;;;;;;;;;;5093003;28;20302;-53
2022/03/24 12:35:06;;;;;;;9.30;8.50;;;;;;;;;;5092319;28;20252;-53
2022/03/24 12:37:43;;;;;;;10.30;9.30;;;;;;;;;;5092676;28;20426;-53
2022/03/24 12:40:12;;;;;;;10.73;9.73;;;;;;;;;;5093425;28;20204;-53
2022/03/24 12:42:41;;;;;;;10.52;9.50;;;;;;;;;;5093053;28;20495;-53
2022/03/24 12:45:10;;;;;;;10.70;9.60;;;;;;;;;;5093870;28;20295;-53
2022/03/24 12:47:38;;;;;;;10.15;9.25;;;;;;;;;;5094169;28;20476;-53
2022/03/24 12:50:11;;;;;;;10.65;9.60;;;;;;;;;;5094009;28;20338;-53
2022/03/24 12:52:51;;;;;;;9.50;8.60;;;;;;;;;;5093389;28;20276;-53
2022/03/24 12:55:22;;;;;;;10.50;9.50;;;;;;;;;;5091095;28;20206;-53
2022/03/24 12:57:56;;;;;;;10.50;9.50;;;;;;;;;;5091655;28;20199;-53
2022/03/24 13:00:26;;;;;;;10.52;9.52;;;;;;;;;;5080396;28;20207;-53
2022/03/24 13:02:54;;;;;;;11.27;9.10;;;;;;;;;;5074576;28;20200;-53
2022/03/24 13:05:26;;;;;;;12.05;10.18;;;;;;;;;;5092598;28;20211;-53
2022/03/24 13:07:54;;;;;;;10.90;9.00;;;;;;;;;;5093133;28;20210;-53
2022/03/24 13:10:23;;;;;;;10.65;9.30;;;;;;;;;;5092815;28;20279;-53
2022/03/24 13:12:52;;;;;;;12.57;10.32;;;;;;;;;;5091933;28;20311;-53
2022/03/24 13:15:21;;;;;;;9.98;8.85;;;;;;;;;;5091985;28;20204;-53
2022/03/24 13:17:50;;;;;;;10.05;9.07;;;;;;;;;;5091590;28;20374;-53
2022/03/24 13:20:18;;;;;;;10.60;9.60;;;;;;;;;;5092459;28;20462;-53
2022/03/24 13:22:49;;;;;;;10.85;9.57;;;;;;;;;;5091509;28;20294;-53
2022/03/24 13:25:17;;;;;;;10.23;9.15;;;;;;;;;;5091641;28;20210;-53
2022/03/24 13:27:46;;;;;;;10.43;9.30;;;;;;;;;;5092925;28;20310;-53
2022/03/24 13:30:16;;;;;;;10.63;9.60;;;;;;;;;;5091560;28;20226;-53
2022/03/24 13:32:44;;;;;;;10.88;9.30;;;;;;;;;;5091506;28;20369;-53
2022/03/24 13:35:12;;;;;;;11.63;10.52;;;;;;;;;;5091150;28;20239;-53
2022/03/24 13:37:40;;;;;;;11.13;10.02;;;;;;;;;;5091097;28;20245;-53
2022/03/24 13:40:11;;;;;;;11.35;10.25;;;;;;;;;;5091647;28;20287;-53
2022/03/24 13:42:39;;;;;;;10.93;9.93;;;;;;;;;;5090708;28;20228;-53
2022/03/24 13:45:07;;;;;;;10.57;9.30;;;;;;;;;;5091587;28;20287;-53
2022/03/24 13:47:35;;;;;;;11.40;10.18;;;;;;;;;;5091347;28;20334;-53
2022/03/24 13:50:03;;;;;;;11.05;9.98;;;;;;;;;;5090824;28;20593;-53
2022/03/24 13:52:31;;;;;;;10.77;9.77;;;;;;;;;;5090208;28;20306;-53
2022/03/24 13:55:04;;;;;;;10.95;9.93;;;;;;;;;;5089617;28;20631;-53
2022/03/24 13:57:33;;;;;;;11.07;9.95;;;;;;;;;;5092786;28;20203;-53
2022/03/24 14:00:02;;;;;;;10.80;9.70;;;;;;;;;;5091109;28;20290;-53
2022/03/24 14:02:30;;;;;;;10.55;9.60;;;;;;;;;;5090042;28;20200;-53
2022/03/24 14:05:05;;;;;;;11.30;10.20;;;;;;;;;;5091785;28;20310;-53
2022/03/24 14:07:32;;;;;;;12.00;10.80;;;;;;;;;;5089806;28;20575;-53
2022/03/24 14:10:00;;;;;;;11.48;10.35;;;;;;;;;;5091341;28;20235;-53
2022/03/24 14:12:28;;;;;;;10.85;9.85;;;;;;;;;;5089479;28;20203;-53
2022/03/24 14:14:57;;;;;;;10.63;9.63;;;;;;;;;;5089967;28;20206;-53
2022/03/24 14:17:26;;;;;;;10.15;9.15;;;;;;;;;;5089647;28;20306;-53
2022/03/24 14:19:56;;;;;;;11.07;10.02;;;;;;;;;;5089937;28;20454;-53
2022/03/24 14:22:25;;;;;;;12.13;10.88;;;;;;;;;;5090940;28;20294;-53
2022/03/24 14:24:53;;;;;;;12.38;11.23;;;;;;;;;;5090435;28;20203;-53
2022/03/24 14:27:21;;;;;;;13.20;12.00;;;;;;;;;;5091505;28;20211;-53
2022/03/24 14:30:03;;;;;;;14.00;12.60;;;;;;;;;;5090645;28;20237;-53
2022/03/24 14:32:31;;;;;;;13.00;11.80;;;;;;;;;;5089990;28;20214;-53
2022/03/24 14:35:06;;;;;;;11.90;10.80;;;;;;;;;;5090472;28;20302;-53
2022/03/24 14:37:40;;;;;;;12.35;11.15;;;;;;;;;;5090468;28;20570;-53
2022/03/24 14:40:08;;;;;;;13.02;11.77;;;;;;;;;;5090450;28;20595;-53
2022/03/24 14:42:36;;;;;;;12.57;11.48;;;;;;;;;;5090385;28;20310;-53
2022/03/24 14:45:06;;;;;;;12.45;11.35;;;;;;;;;;5089586;28;20200;-53
2022/03/24 14:47:33;;;;;;;12.93;11.63;;;;;;;;;;5089795;28;20691;-53